sensor_id;sensor_type;location;lat;lon;timestamp;pressure;altitude;pressure_sealevel;temperature;humidity
84083;BME280;74174;52.224;6.878;2023-12-20T00:01:39;101180.47;;;6.58;95.58
84083;BME280;74174;52.224;6.878;2023-12-20T00:04:05;101190.22;;;6.58;95.38
84083;BME280;74174;52.224;6.878;2023-12-20T00:06:31;101193.94;;;6.63;95.51
84083;BME280;74174;52.224;6.878;2023-12-20T00:08:56;101198.75;;;6.60;95.42
84083;BME280;74174;52.224;6.878;2023-12-20T00:11:23;101196.47;;;6.57;95.91
84083;BME280;74174;52.224;6.878;2023-12-20T00:13:48;101201.44;;;6.52;95.76
84083;BME280;74174;52.224;6.878;2023-12-20T00:16:14;101201.09;;;6.55;95.18
84083;BME280;74174;52.224;6.878;2023-12-20T00:18:39;101197.16;;;6.51;95.55
84083;BME280;74174;52.224;6.878;2023-12-20T00:21:04;101187.28;;;6.53;95.24
84083;BME280;74174;52.224;6.878;2023-12-20T00:23:30;101200.97;;;6.48;94.66
84083;BME280;74174;52.224;6.878;2023-12-20T00:25:55;101186.88;;;6.33;95.19
84083;BME280;74174;52.224;6.878;2023-12-20T00:28:21;101187.50;;;6.43;94.73
84083;BME280;74174;52.224;6.878;2023-12-20T00:30:47;101192.44;;;6.38;94.70
84083;BME280;74174;52.224;6.878;2023-12-20T00:33:12;101191.50;;;6.31;95.21
84083;BME280;74174;52.224;6.878;2023-12-20T00:35:37;101188.09;;;6.22;95.37
84083;BME280;74174;52.224;6.878;2023-12-20T00:38:03;101189.38;;;6.26;95.54
84083;BME280;74174;52.224;6.878;2023-12-20T00:40:30;101182.47;;;6.25;95.14
84083;BME280;74174;52.224;6.878;2023-12-20T00:42:55;101188.63;;;6.18;95.15
84083;BME280;74174;52.224;6.878;2023-12-20T00:45:21;101187.91;;;6.24;95.14
84083;BME280;74174;52.224;6.878;2023-12-20T00:47:46;101187.28;;;6.14;95.11
84083;BME280;74174;52.224;6.878;2023-12-20T00:50:11;101181.25;;;6.05;95.16
84083;BME280;74174;52.224;6.878;2023-12-20T00:52:37;101192.28;;;6.09;95.14
84083;BME280;74174;52.224;6.878;2023-12-20T00:55:03;101191.97;;;6.04;95.99
84083;BME280;74174;52.224;6.878;2023-12-20T00:57:29;101186.84;;;6.10;95.55
84083;BME280;74174;52.224;6.878;2023-12-20T00:59:55;101184.03;;;6.12;94.81
84083;BME280;74174;52.224;6.878;2023-12-20T01:02:20;101183.19;;;6.11;95.21
84083;BME280;74174;52.224;6.878;2023-12-20T01:04:45;101160.53;;;6.02;95.32
84083;BME280;74174;52.224;6.878;2023-12-20T01:07:11;101182.09;;;6.06;94.80
84083;BME280;74174;52.224;6.878;2023-12-20T01:09:36;101177.81;;;6.05;95.05
84083;BME280;74174;52.224;6.878;2023-12-20T01:12:02;101171.44;;;5.91;95.41
84083;BME280;74174;52.224;6.878;2023-12-20T01:14:27;101175.56;;;5.94;95.47
84083;BME280;74174;52.224;6.878;2023-12-20T01:16:52;101163.38;;;5.93;95.42
84083;BME280;74174;52.224;6.878;2023-12-20T01:19:18;101163.72;;;5.82;95.51
84083;BME280;74174;52.224;6.878;2023-12-20T01:21:43;101169.50;;;5.85;95.65
84083;BME280;74174;52.224;6.878;2023-12-20T01:24:09;101165.72;;;5.80;95.21
84083;BME280;74174;52.224;6.878;2023-12-20T01:26:34;101172.31;;;5.76;95.28
84083;BME280;74174;52.224;6.878;2023-12-20T01:28:59;101172.44;;;5.74;95.11
84083;BME280;74174;52.224;6.878;2023-12-20T01:31:25;101173.63;;;5.72;95.28
84083;BME280;74174;52.224;6.878;2023-12-20T01:33:52;101174.09;;;5.67;95.45
84083;BME280;74174;52.224;6.878;2023-12-20T01:36:18;101194.31;;;5.83;94.91
84083;BME280;74174;52.224;6.878;2023-12-20T01:38:43;101184.63;;;5.67;95.01
84083;BME280;74174;52.224;6.878;2023-12-20T01:41:08;101175.28;;;5.65;94.93
84083;BME280;74174;52.224;6.878;2023-12-20T01:43:34;101161.38;;;5.48;95.23
84083;BME280;74174;52.224;6.878;2023-12-20T01:46:00;101166.06;;;5.69;94.51
84083;BME280;74174;52.224;6.878;2023-12-20T01:48:26;101175.75;;;5.68;95.26
84083;BME280;74174;52.224;6.878;2023-12-20T01:50:53;101161.84;;;5.51;94.82
84083;BME280;74174;52.224;6.878;2023-12-20T01:53:20;101184.16;;;5.64;94.93
84083;BME280;74174;52.224;6.878;2023-12-20T01:55:47;101180.38;;;5.58;94.71
84083;BME280;74174;52.224;6.878;2023-12-20T01:58:14;101173.34;;;5.50;95.17
84083;BME280;74174;52.224;6.878;2023-12-20T02:00:40;101181.22;;;5.58;94.68
84083;BME280;74174;52.224;6.878;2023-12-20T02:03:05;101175.44;;;5.63;94.83
84083;BME280;74174;52.224;6.878;2023-12-20T02:05:32;101173.19;;;5.60;94.26
84083;BME280;74174;52.224;6.878;2023-12-20T02:07:57;101178.44;;;5.52;95.21
84083;BME280;74174;52.224;6.878;2023-12-20T02:10:23;101174.66;;;5.54;94.82
84083;BME280;74174;52.224;6.878;2023-12-20T02:12:49;101185.00;;;5.56;94.68
84083;BME280;74174;52.224;6.878;2023-12-20T02:15:15;101170.72;;;5.50;95.28
84083;BME280;74174;52.224;6.878;2023-12-20T02:17:40;101172.50;;;5.66;95.03
84083;BME280;74174;52.224;6.878;2023-12-20T02:20:06;101177.25;;;5.63;95.38
84083;BME280;74174;52.224;6.878;2023-12-20T02:22:32;101181.53;;;5.72;95.01
84083;BME280;74174;52.224;6.878;2023-12-20T02:24:57;101176.25;;;5.72;95.35
84083;BME280;74174;52.224;6.878;2023-12-20T02:27:23;101172.50;;;5.66;95.10
84083;BME280;74174;52.224;6.878;2023-12-20T02:29:49;101168.06;;;5.67;94.94
84083;BME280;74174;52.224;6.878;2023-12-20T02:32:16;101162.16;;;5.65;94.39
84083;BME280;74174;52.224;6.878;2023-12-20T02:34:42;101161.47;;;5.63;94.72
84083;BME280;74174;52.224;6.878;2023-12-20T02:37:07;101153.06;;;5.67;94.35
84083;BME280;74174;52.224;6.878;2023-12-20T02:39:33;101157.56;;;5.58;94.56
84083;BME280;74174;52.224;6.878;2023-12-20T02:41:58;101156.56;;;5.59;94.07
84083;BME280;74174;52.224;6.878;2023-12-20T02:44:24;101152.97;;;5.52;94.71
84083;BME280;74174;52.224;6.878;2023-12-20T02:46:50;101149.19;;;5.55;94.42
84083;BME280;74174;52.224;6.878;2023-12-20T02:49:15;101154.59;;;5.53;94.49
84083;BME280;74174;52.224;6.878;2023-12-20T02:51:40;101155.53;;;5.85;94.10
84083;BME280;74174;52.224;6.878;2023-12-20T02:54:06;101144.41;;;5.58;94.12
84083;BME280;74174;52.224;6.878;2023-12-20T02:56:32;101142.41;;;5.60;94.53
84083;BME280;74174;52.224;6.878;2023-12-20T02:58:58;101151.13;;;5.61;94.97
84083;BME280;74174;52.224;6.878;2023-12-20T03:01:23;101157.22;;;5.62;94.24
84083;BME280;74174;52.224;6.878;2023-12-20T03:03:49;101145.91;;;5.53;94.56
84083;BME280;74174;52.224;6.878;2023-12-20T03:06:18;101144.44;;;5.50;94.76
84083;BME280;74174;52.224;6.878;2023-12-20T03:08:44;101145.75;;;5.54;94.92
84083;BME280;74174;52.224;6.878;2023-12-20T03:11:09;101139.34;;;5.49;94.48
84083;BME280;74174;52.224;6.878;2023-12-20T03:13:35;101138.69;;;5.47;95.16
84083;BME280;74174;52.224;6.878;2023-12-20T03:16:01;101133.56;;;5.53;95.13
84083;BME280;74174;52.224;6.878;2023-12-20T03:18:26;101138.44;;;5.73;94.07
84083;BME280;74174;52.224;6.878;2023-12-20T03:20:53;101125.19;;;5.58;95.00
84083;BME280;74174;52.224;6.878;2023-12-20T03:23:19;101127.66;;;5.59;94.62
84083;BME280;74174;52.224;6.878;2023-12-20T03:25:44;101123.81;;;5.78;94.00
84083;BME280;74174;52.224;6.878;2023-12-20T03:28:10;101123.97;;;5.85;94.21
84083;BME280;74174;52.224;6.878;2023-12-20T03:30:35;101122.03;;;5.71;94.62
84083;BME280;74174;52.224;6.878;2023-12-20T03:33:00;101118.91;;;5.67;94.54
84083;BME280;74174;52.224;6.878;2023-12-20T03:35:26;101123.69;;;5.64;94.30
84083;BME280;74174;52.224;6.878;2023-12-20T03:37:51;101121.53;;;5.67;94.10
84083;BME280;74174;52.224;6.878;2023-12-20T03:40:17;101117.09;;;5.76;94.06
84083;BME280;74174;52.224;6.878;2023-12-20T03:42:42;101123.19;;;5.68;94.28
84083;BME280;74174;52.224;6.878;2023-12-20T03:45:08;101121.72;;;5.66;94.80
84083;BME280;74174;52.224;6.878;2023-12-20T03:47:33;101121.06;;;5.64;94.89
84083;BME280;74174;52.224;6.878;2023-12-20T03:49:59;101118.75;;;5.69;94.43
84083;BME280;74174;52.224;6.878;2023-12-20T03:52:24;101115.94;;;5.70;94.31
84083;BME280;74174;52.224;6.878;2023-12-20T03:54:49;101104.59;;;5.70;95.06
84083;BME280;74174;52.224;6.878;2023-12-20T03:57:15;101114.78;;;5.73;94.94
84083;BME280;74174;52.224;6.878;2023-12-20T03:59:40;101107.66;;;5.81;94.00
84083;BME280;74174;52.224;6.878;2023-12-20T04:02:06;101105.41;;;5.78;94.94
84083;BME280;74174;52.224;6.878;2023-12-20T04:04:31;101113.91;;;5.88;94.13
84083;BME280;74174;52.224;6.878;2023-12-20T04:06:56;101112.72;;;5.99;93.37
84083;BME280;74174;52.224;6.878;2023-12-20T04:09:22;101115.06;;;5.94;93.68
84083;BME280;74174;52.224;6.878;2023-12-20T04:11:47;101105.03;;;5.81;93.76
84083;BME280;74174;52.224;6.878;2023-12-20T04:14:12;101125.63;;;5.86;94.65
84083;BME280;74174;52.224;6.878;2023-12-20T04:16:38;101121.16;;;5.86;94.67
84083;BME280;74174;52.224;6.878;2023-12-20T04:19:04;101125.88;;;5.99;93.69
84083;BME280;74174;52.224;6.878;2023-12-20T04:21:29;101119.28;;;6.03;93.58
84083;BME280;74174;52.224;6.878;2023-12-20T04:23:55;101116.94;;;6.16;93.71
84083;BME280;74174;52.224;6.878;2023-12-20T04:26:20;101126.19;;;6.04;93.78
84083;BME280;74174;52.224;6.878;2023-12-20T04:28:46;101119.91;;;6.13;93.78
84083;BME280;74174;52.224;6.878;2023-12-20T04:31:11;101119.59;;;6.08;93.43
84083;BME280;74174;52.224;6.878;2023-12-20T04:33:36;101116.66;;;6.03;93.71
84083;BME280;74174;52.224;6.878;2023-12-20T04:36:02;101114.00;;;6.03;93.99
84083;BME280;74174;52.224;6.878;2023-12-20T04:38:28;101111.56;;;6.01;93.56
84083;BME280;74174;52.224;6.878;2023-12-20T04:40:53;101108.75;;;6.03;94.00
84083;BME280;74174;52.224;6.878;2023-12-20T04:43:19;101110.22;;;6.05;93.68
84083;BME280;74174;52.224;6.878;2023-12-20T04:45:44;101107.66;;;5.97;94.35
84083;BME280;74174;52.224;6.878;2023-12-20T04:48:09;101100.47;;;6.14;93.80
84083;BME280;74174;52.224;6.878;2023-12-20T04:50:35;101111.28;;;6.19;92.79
84083;BME280;74174;52.224;6.878;2023-12-20T04:53:00;101111.72;;;6.00;93.50
84083;BME280;74174;52.224;6.878;2023-12-20T04:55:26;101111.56;;;6.01;93.84
84083;BME280;74174;52.224;6.878;2023-12-20T04:57:51;101119.91;;;6.13;93.98
84083;BME280;74174;52.224;6.878;2023-12-20T05:00:17;101109.06;;;6.08;93.87
84083;BME280;74174;52.224;6.878;2023-12-20T05:02:42;101106.94;;;6.03;93.66
84083;BME280;74174;52.224;6.878;2023-12-20T05:05:08;101106.13;;;6.03;94.07
84083;BME280;74174;52.224;6.878;2023-12-20T05:07:33;101096.81;;;5.92;94.29
84083;BME280;74174;52.224;6.878;2023-12-20T05:09:59;101095.16;;;5.99;93.70
84083;BME280;74174;52.224;6.878;2023-12-20T05:12:24;101097.03;;;6.13;94.23
84083;BME280;74174;52.224;6.878;2023-12-20T05:14:52;101091.78;;;6.13;93.28
84083;BME280;74174;52.224;6.878;2023-12-20T05:17:17;101100.72;;;6.04;93.49
84083;BME280;74174;52.224;6.878;2023-12-20T05:19:43;101097.03;;;6.13;93.39
84083;BME280;74174;52.224;6.878;2023-12-20T05:22:08;101084.31;;;5.94;94.28
84083;BME280;74174;52.224;6.878;2023-12-20T05:24:34;101090.13;;;6.12;93.08
84083;BME280;74174;52.224;6.878;2023-12-20T05:26:59;101104.94;;;6.13;93.84
84083;BME280;74174;52.224;6.878;2023-12-20T05:29:25;101089.09;;;6.21;93.01
84083;BME280;74174;52.224;6.878;2023-12-20T05:31:50;101092.56;;;6.14;93.41
84083;BME280;74174;52.224;6.878;2023-12-20T05:34:15;101085.78;;;6.28;92.77
84083;BME280;74174;52.224;6.878;2023-12-20T05:36:41;101087.81;;;6.17;92.83
84083;BME280;74174;52.224;6.878;2023-12-20T05:39:06;101082.41;;;6.11;93.99
84083;BME280;74174;52.224;6.878;2023-12-20T05:41:33;101085.63;;;6.21;92.60
84083;BME280;74174;52.224;6.878;2023-12-20T05:43:58;101086.56;;;6.28;92.65
84083;BME280;74174;52.224;6.878;2023-12-20T05:46:24;101082.44;;;6.34;92.43
84083;BME280;74174;52.224;6.878;2023-12-20T05:48:49;101095.28;;;6.28;93.11
84083;BME280;74174;52.224;6.878;2023-12-20T05:51:16;101086.09;;;6.24;92.63
84083;BME280;74174;52.224;6.878;2023-12-20T05:53:42;101086.97;;;6.17;93.32
84083;BME280;74174;52.224;6.878;2023-12-20T05:56:07;101084.41;;;6.09;93.44
84083;BME280;74174;52.224;6.878;2023-12-20T05:58:33;101087.28;;;6.22;93.23
84083;BME280;74174;52.224;6.878;2023-12-20T06:00:58;101093.06;;;6.17;93.30
84083;BME280;74174;52.224;6.878;2023-12-20T06:03:24;101089.72;;;6.23;92.41
84083;BME280;74174;52.224;6.878;2023-12-20T06:05:49;101074.22;;;6.28;92.50
84083;BME280;74174;52.224;6.878;2023-12-20T06:08:15;101084.94;;;6.27;92.63
84083;BME280;74174;52.224;6.878;2023-12-20T06:10:40;101077.91;;;6.19;93.02
84083;BME280;74174;52.224;6.878;2023-12-20T06:13:05;101070.78;;;6.28;92.57
84083;BME280;74174;52.224;6.878;2023-12-20T06:15:32;101087.06;;;6.32;93.10
84083;BME280;74174;52.224;6.878;2023-12-20T06:17:58;101085.09;;;6.25;92.25
84083;BME280;74174;52.224;6.878;2023-12-20T06:20:23;101088.75;;;6.24;93.14
84083;BME280;74174;52.224;6.878;2023-12-20T06:22:48;101089.50;;;6.33;92.40
84083;BME280;74174;52.224;6.878;2023-12-20T06:25:14;101092.19;;;6.25;92.66
84083;BME280;74174;52.224;6.878;2023-12-20T06:27:39;101084.34;;;6.40;91.86
84083;BME280;74174;52.224;6.878;2023-12-20T06:30:06;101079.28;;;6.38;92.00
84083;BME280;74174;52.224;6.878;2023-12-20T06:32:34;101075.47;;;6.41;91.59
84083;BME280;74174;52.224;6.878;2023-12-20T06:34:59;101082.44;;;6.34;92.34
84083;BME280;74174;52.224;6.878;2023-12-20T06:37:25;101069.69;;;6.45;91.67
84083;BME280;74174;52.224;6.878;2023-12-20T06:39:50;101071.47;;;6.45;91.94
84083;BME280;74174;52.224;6.878;2023-12-20T06:42:16;101081.47;;;6.49;91.38
84083;BME280;74174;52.224;6.878;2023-12-20T06:44:41;101073.13;;;6.46;91.54
84083;BME280;74174;52.224;6.878;2023-12-20T06:47:07;101071.19;;;6.40;91.28
84083;BME280;74174;52.224;6.878;2023-12-20T06:49:32;101067.88;;;6.46;91.66
84083;BME280;74174;52.224;6.878;2023-12-20T06:51:57;101059.38;;;6.36;92.38
84083;BME280;74174;52.224;6.878;2023-12-20T06:54:23;101067.78;;;6.54;91.39
84083;BME280;74174;52.224;6.878;2023-12-20T06:56:48;101063.63;;;6.59;91.22
84083;BME280;74174;52.224;6.878;2023-12-20T06:59:14;101073.06;;;6.54;91.00
84083;BME280;74174;52.224;6.878;2023-12-20T07:01:39;101064.47;;;6.60;90.97
84083;BME280;74174;52.224;6.878;2023-12-20T07:04:05;101062.38;;;6.55;91.61
84083;BME280;74174;52.224;6.878;2023-12-20T07:06:30;101061.53;;;6.55;90.95
84083;BME280;74174;52.224;6.878;2023-12-20T07:08:55;101065.69;;;6.49;91.67
84083;BME280;74174;52.224;6.878;2023-12-20T07:11:21;101045.34;;;6.43;91.13
84083;BME280;74174;52.224;6.878;2023-12-20T07:13:46;101052.56;;;6.64;90.65
84083;BME280;74174;52.224;6.878;2023-12-20T07:16:11;101060.41;;;6.72;90.49
84083;BME280;74174;52.224;6.878;2023-12-20T07:18:38;101065.50;;;6.73;90.67
84083;BME280;74174;52.224;6.878;2023-12-20T07:21:03;101045.94;;;6.68;90.79
84083;BME280;74174;52.224;6.878;2023-12-20T07:23:29;101061.00;;;6.59;91.74
84083;BME280;74174;52.224;6.878;2023-12-20T07:25:54;101052.22;;;6.67;91.06
84083;BME280;74174;52.224;6.878;2023-12-20T07:28:20;101053.22;;;6.66;90.89
84083;BME280;74174;52.224;6.878;2023-12-20T07:30:45;101055.84;;;6.66;91.19
84083;BME280;74174;52.224;6.878;2023-12-20T07:33:10;101048.44;;;6.69;90.59
84083;BME280;74174;52.224;6.878;2023-12-20T07:35:37;101061.69;;;6.76;90.68
84083;BME280;74174;52.224;6.878;2023-12-20T07:38:03;101055.16;;;6.72;90.44
84083;BME280;74174;52.224;6.878;2023-12-20T07:40:28;101054.06;;;6.81;90.39
84083;BME280;74174;52.224;6.878;2023-12-20T07:42:54;101056.72;;;6.81;90.40
84083;BME280;74174;52.224;6.878;2023-12-20T07:45:19;101060.22;;;6.73;90.36
84083;BME280;74174;52.224;6.878;2023-12-20T07:47:44;101054.22;;;6.65;91.34
84083;BME280;74174;52.224;6.878;2023-12-20T07:50:10;101060.69;;;6.77;90.63
84083;BME280;74174;52.224;6.878;2023-12-20T07:52:35;101022.16;;;6.61;90.41
84083;BME280;74174;52.224;6.878;2023-12-20T07:55:01;101046.34;;;6.79;90.13
84083;BME280;74174;52.224;6.878;2023-12-20T07:57:29;101042.47;;;6.90;90.32
84083;BME280;74174;52.224;6.878;2023-12-20T07:59:54;101038.91;;;6.83;90.03
84083;BME280;74174;52.224;6.878;2023-12-20T08:02:20;101039.34;;;6.86;90.39
84083;BME280;74174;52.224;6.878;2023-12-20T08:04:45;101042.38;;;6.83;90.78
84083;BME280;74174;52.224;6.878;2023-12-20T08:07:10;101051.16;;;6.76;90.54
84083;BME280;74174;52.224;6.878;2023-12-20T08:09:36;101040.66;;;6.90;90.29
84083;BME280;74174;52.224;6.878;2023-12-20T08:12:02;101043.06;;;6.77;90.54
84083;BME280;74174;52.224;6.878;2023-12-20T08:14:27;101061.25;;;6.87;91.10
84083;BME280;74174;52.224;6.878;2023-12-20T08:16:53;101052.66;;;6.93;89.64
84083;BME280;74174;52.224;6.878;2023-12-20T08:19:18;101052.75;;;7.00;89.48
84083;BME280;74174;52.224;6.878;2023-12-20T08:21:44;101057.47;;;7.04;89.71
84083;BME280;74174;52.224;6.878;2023-12-20T08:24:09;101045.91;;;7.05;89.30
84083;BME280;74174;52.224;6.878;2023-12-20T08:26:34;101048.66;;;6.97;89.97
84083;BME280;74174;52.224;6.878;2023-12-20T08:29:00;101049.28;;;6.99;89.68
84083;BME280;74174;52.224;6.878;2023-12-20T08:31:25;101055.53;;;6.98;89.22
84083;BME280;74174;52.224;6.878;2023-12-20T08:33:51;101046.75;;;7.06;89.37
84083;BME280;74174;52.224;6.878;2023-12-20T08:36:18;101052.94;;;7.13;89.09
84083;BME280;74174;52.224;6.878;2023-12-20T08:38:44;101049.38;;;7.06;89.61
84083;BME280;74174;52.224;6.878;2023-12-20T08:41:09;101050.19;;;7.06;88.98
84083;BME280;74174;52.224;6.878;2023-12-20T08:43:34;101053.13;;;7.11;89.49
84083;BME280;74174;52.224;6.878;2023-12-20T08:46:01;101044.56;;;7.24;89.18
84083;BME280;74174;52.224;6.878;2023-12-20T08:48:26;101040.38;;;7.15;89.30
84083;BME280;74174;52.224;6.878;2023-12-20T08:50:52;101023.75;;;7.14;89.16
84083;BME280;74174;52.224;6.878;2023-12-20T08:53:18;101041.50;;;7.20;89.34
84083;BME280;74174;52.224;6.878;2023-12-20T08:55:44;101038.13;;;7.26;89.04
84083;BME280;74174;52.224;6.878;2023-12-20T08:58:10;101040.13;;;7.24;89.94
84083;BME280;74174;52.224;6.878;2023-12-20T09:00:35;101041.13;;;7.23;89.98
84083;BME280;74174;52.224;6.878;2023-12-20T09:03:01;101041.13;;;7.23;90.24
84083;BME280;74174;52.224;6.878;2023-12-20T09:05:27;101036.31;;;7.27;90.63
84083;BME280;74174;52.224;6.878;2023-12-20T09:07:53;101036.41;;;7.19;90.53
84083;BME280;74174;52.224;6.878;2023-12-20T09:10:18;101027.56;;;7.26;90.62
84083;BME280;74174;52.224;6.878;2023-12-20T09:12:49;101026.31;;;7.22;91.26
84083;BME280;74174;52.224;6.878;2023-12-20T09:15:20;101026.94;;;7.24;91.64
84083;BME280;74174;52.224;6.878;2023-12-20T09:17:46;101034.41;;;7.21;90.86
84083;BME280;74174;52.224;6.878;2023-12-20T09:20:11;101033.84;;;7.11;91.31
84083;BME280;74174;52.224;6.878;2023-12-20T09:22:38;101032.13;;;7.18;90.91
84083;BME280;74174;52.224;6.878;2023-12-20T09:25:05;101033.03;;;7.10;91.05
84083;BME280;74174;52.224;6.878;2023-12-20T09:27:31;101006.56;;;6.89;91.59
84083;BME280;74174;52.224;6.878;2023-12-20T09:29:56;101030.66;;;7.15;91.59
84083;BME280;74174;52.224;6.878;2023-12-20T09:32:21;101053.47;;;7.08;92.47
84083;BME280;74174;52.224;6.878;2023-12-20T09:34:47;101042.84;;;7.16;91.70
84083;BME280;74174;52.224;6.878;2023-12-20T09:37:13;101047.75;;;7.19;91.85
84083;BME280;74174;52.224;6.878;2023-12-20T09:39:39;101052.31;;;7.25;92.11
84083;BME280;74174;52.224;6.878;2023-12-20T09:42:05;101020.94;;;7.01;92.31
84083;BME280;74174;52.224;6.878;2023-12-20T09:44:32;101007.03;;;6.92;92.48
84083;BME280;74174;52.224;6.878;2023-12-20T09:47:02;101051.75;;;7.15;92.78
84083;BME280;74174;52.224;6.878;2023-12-20T09:49:31;101036.56;;;7.03;92.65
84083;BME280;74174;52.224;6.878;2023-12-20T09:51:57;101059.03;;;7.28;92.11
84083;BME280;74174;52.224;6.878;2023-12-20T09:54:28;101065.22;;;7.20;92.43
84083;BME280;74174;52.224;6.878;2023-12-20T09:56:53;101062.28;;;7.15;92.36
84083;BME280;74174;52.224;6.878;2023-12-20T09:59:20;101027.13;;;7.08;92.62
84083;BME280;74174;52.224;6.878;2023-12-20T10:01:48;101052.22;;;7.19;92.77
84083;BME280;74174;52.224;6.878;2023-12-20T10:04:15;100991.66;;;6.81;93.30
84083;BME280;74174;52.224;6.878;2023-12-20T10:06:42;101063.41;;;7.21;93.37
84083;BME280;74174;52.224;6.878;2023-12-20T10:09:11;101058.84;;;7.29;92.94
84083;BME280;74174;52.224;6.878;2023-12-20T10:11:38;101051.84;;;7.22;93.11
84083;BME280;74174;52.224;6.878;2023-12-20T10:14:04;101053.00;;;7.19;93.63
84083;BME280;74174;52.224;6.878;2023-12-20T10:16:30;101056.84;;;7.31;93.16
84083;BME280;74174;52.224;6.878;2023-12-20T10:18:59;101052.59;;;7.30;92.63
84083;BME280;74174;52.224;6.878;2023-12-20T10:21:25;101066.56;;;7.45;92.43
84083;BME280;74174;52.224;6.878;2023-12-20T10:23:52;101055.38;;;7.29;92.83
84083;BME280;74174;52.224;6.878;2023-12-20T10:26:22;101063.56;;;7.34;92.24
84083;BME280;74174;52.224;6.878;2023-12-20T10:28:54;101048.75;;;7.33;92.87
84083;BME280;74174;52.224;6.878;2023-12-20T10:31:30;101046.22;;;7.39;92.84
84083;BME280;74174;52.224;6.878;2023-12-20T10:33:57;101061.22;;;7.39;92.61
84083;BME280;74174;52.224;6.878;2023-12-20T10:36:25;101052.75;;;7.43;92.72
84083;BME280;74174;52.224;6.878;2023-12-20T10:38:54;101049.75;;;7.46;92.68
84083;BME280;74174;52.224;6.878;2023-12-20T10:43:51;101044.91;;;7.50;92.81
84083;BME280;74174;52.224;6.878;2023-12-20T10:46:17;101045.00;;;7.56;92.70
84083;BME280;74174;52.224;6.878;2023-12-20T10:48:46;101038.00;;;7.63;92.37
84083;BME280;74174;52.224;6.878;2023-12-20T10:51:14;101026.16;;;7.74;92.14
84083;BME280;74174;52.224;6.878;2023-12-20T10:53:42;101012.22;;;7.80;91.04
84083;BME280;74174;52.224;6.878;2023-12-20T10:56:12;101027.47;;;7.85;91.44
84083;BME280;74174;52.224;6.878;2023-12-20T10:58:42;101005.88;;;7.75;91.79
84083;BME280;74174;52.224;6.878;2023-12-20T11:01:08;101001.50;;;7.82;91.56
84083;BME280;74174;52.224;6.878;2023-12-20T11:03:35;100997.41;;;7.79;91.20
84083;BME280;74174;52.224;6.878;2023-12-20T11:06:51;100999.91;;;7.87;92.39
84083;BME280;74174;52.224;6.878;2023-12-20T11:09:10;100971.50;;;7.89;91.53
84083;BME280;74174;52.224;6.878;2023-12-20T11:17:08;100990.78;;;8.47;90.26
84083;BME280;74174;52.224;6.878;2023-12-20T11:19:36;100957.63;;;8.44;89.04
84083;BME280;74174;52.224;6.878;2023-12-20T11:22:03;100983.97;;;8.59;89.23
84083;BME280;74174;52.224;6.878;2023-12-20T11:24:31;100982.72;;;8.61;88.22
84083;BME280;74174;52.224;6.878;2023-12-20T11:26:59;100935.97;;;8.06;89.04
84083;BME280;74174;52.224;6.878;2023-12-20T11:29:35;100970.13;;;8.35;89.20
84083;BME280;74174;52.224;6.878;2023-12-20T11:32:29;100968.94;;;8.17;89.34
84083;BME280;74174;52.224;6.878;2023-12-20T11:34:56;100964.47;;;8.17;89.92
84083;BME280;74174;52.224;6.878;2023-12-20T11:37:37;100975.19;;;8.09;90.78
84083;BME280;74174;52.224;6.878;2023-12-20T11:40:05;100962.41;;;8.13;90.44
84083;BME280;74174;52.224;6.878;2023-12-20T11:42:33;100951.84;;;8.13;90.43
84083;BME280;74174;52.224;6.878;2023-12-20T11:45:03;100952.63;;;8.28;90.91
84083;BME280;74174;52.224;6.878;2023-12-20T11:47:29;100948.06;;;8.22;91.20
84083;BME280;74174;52.224;6.878;2023-12-20T11:49:55;100928.09;;;8.13;90.75
84083;BME280;74174;52.224;6.878;2023-12-20T11:52:21;100944.97;;;8.33;91.26
84083;BME280;74174;52.224;6.878;2023-12-20T11:54:47;100935.88;;;8.42;91.13
84083;BME280;74174;52.224;6.878;2023-12-20T11:57:13;100924.28;;;8.43;90.42
84083;BME280;74174;52.224;6.878;2023-12-20T11:59:39;100934.03;;;8.43;89.46
84083;BME280;74174;52.224;6.878;2023-12-20T12:02:04;100900.16;;;8.25;88.69
84083;BME280;74174;52.224;6.878;2023-12-20T12:04:30;100937.09;;;8.40;88.33
84083;BME280;74174;52.224;6.878;2023-12-20T12:06:55;100963.28;;;8.20;89.06
84083;BME280;74174;52.224;6.878;2023-12-20T12:09:20;100995.31;;;8.17;88.62
84083;BME280;74174;52.224;6.878;2023-12-20T12:11:46;100970.47;;;7.84;86.44
84083;BME280;74174;52.224;6.878;2023-12-20T12:14:11;100983.03;;;7.82;83.71
84083;BME280;74174;52.224;6.878;2023-12-20T12:16:38;101004.84;;;7.76;85.06
84083;BME280;74174;52.224;6.878;2023-12-20T12:19:04;101007.72;;;7.59;86.72
84083;BME280;74174;52.224;6.878;2023-12-20T12:21:30;100963.38;;;7.34;87.61
84083;BME280;74174;52.224;6.878;2023-12-20T12:24:06;100989.13;;;7.46;88.48
84083;BME280;74174;52.224;6.878;2023-12-20T12:26:32;100986.22;;;7.41;88.68
84083;BME280;74174;52.224;6.878;2023-12-20T12:28:58;100962.97;;;7.16;89.10
84083;BME280;74174;52.224;6.878;2023-12-20T12:31:23;100995.56;;;7.29;89.56
84083;BME280;74174;52.224;6.878;2023-12-20T12:33:50;100990.94;;;7.31;88.99
84083;BME280;74174;52.224;6.878;2023-12-20T12:36:16;100976.22;;;7.22;89.70
84083;BME280;74174;52.224;6.878;2023-12-20T12:38:43;100946.16;;;7.02;89.18
84083;BME280;74174;52.224;6.878;2023-12-20T12:41:08;100968.31;;;7.22;89.18
84083;BME280;74174;52.224;6.878;2023-12-20T12:43:35;100969.84;;;7.17;89.74
84083;BME280;74174;52.224;6.878;2023-12-20T12:46:00;100965.69;;;7.08;90.31
84083;BME280;74174;52.224;6.878;2023-12-20T12:48:26;100958.34;;;7.03;90.97
84083;BME280;74174;52.224;6.878;2023-12-20T12:50:53;100910.56;;;6.91;91.42
84083;BME280;74174;52.224;6.878;2023-12-20T12:53:19;100947.97;;;7.16;91.11
84083;BME280;74174;52.224;6.878;2023-12-20T12:55:46;100952.25;;;7.03;91.40
84083;BME280;74174;52.224;6.878;2023-12-20T12:58:11;100944.53;;;7.01;92.21
84083;BME280;74174;52.224;6.878;2023-12-20T13:00:37;100949.88;;;7.08;92.02
84083;BME280;74174;52.224;6.878;2023-12-20T13:03:02;100961.25;;;7.08;91.52